Concord, CA

7:05 PM PST on December 28, 2014 (GMT -0800)
East Concord | Change Station
CLOSE
Current Station
Personal Weather Station
Location: Concord, CA
Elevation: 362 ft
Nearby Weather Stations

Elev 362 ft 37.96 °N, 121.95 °W | Updated 250 days ago

Fog
Fog
45 °F
Feels Like 45 °F
N
4
Wind Variable Wind from SSE
Gusts 5 mph

Today
High -- | Low -- °F
--% Chance of Precip.
Yesterday
High -- | Low -- °F
Precip. -- in
7:22 AM 4:56 PM
First Quarter, 54% visible
Pressure 30.21 in
Visibility 10.0 miles
Clouds Clear
Dew Point 36 °F
Humidity 68%
Rainfall 0.00 in
Snow Depth Not available.
UV 0 out of 12
Pollen 5.30 out of 12
Air Quality Not available.
Flu Activity Not available.
METAR KCCR 290253Z AUTO 15003KT 10SM CLR 10/06 A3025 RMK AO2 SLP230 T01000056 53003 $

More Conditions Fewer Conditions

Pressure 30.21 in
Visibility 10.0 miles
Clouds Clear
Dew Point 36 °F
Humidity 68%
Rainfall 0.00 in
Snow Depth Not available.
UV 0 out of 12
Pollen 5.30 out of 12
Air Quality Not available.
Flu Activity Not available.
METAR KCCR 290253Z AUTO 15003KT 10SM CLR 10/06 A3025 RMK AO2 SLP230 T01000056 53003 $

More Conditions Fewer Conditions

10-Day Weather Forecast

Almanac

Astronomy

Dec. 28, 2014 Rise Set
Actual Time
Civil Twilight
Nautical Twilight
Astronomical Twilight
Moon
Length of Visible Light
Length of Day
Tomorrow will be .
, % of the Moon is Illuminated

Today's Extremes

State Highs State Lows

Community

WunderPhotos

Upload Photos

1,781,508 photos uploaded!

WunderBlogs® & News

Nearby

Air Quality

  Air Quality AQ Index Pollutant
Not available.

Snow Depth

Station Depth Elevation

Earthquake Activity

City Distance Mag. Time & Date
Minimum magnitude displayed is 2.5.

Coastal Water Temperatures

Place Temperature

Nearby Weather Stations